sensor_id;sensor_type;location;lat;lon;timestamp;P1;durP1;ratioP1;P2;durP2;ratioP2
71963;SDS011;59834;52.124;5.422;2022-12-10T00:50:34;36.38;;;13.75;;
71963;SDS011;59834;52.124;5.422;2022-12-10T00:53:01;38.25;;;15.15;;
71963;SDS011;59834;52.124;5.422;2022-12-10T00:55:28;45.90;;;17.37;;
71963;SDS011;59834;52.124;5.422;2022-12-10T00:57:55;43.38;;;16.00;;
71963;SDS011;59834;52.124;5.422;2022-12-10T01:00:21;57.33;;;18.95;;
71963;SDS011;59834;52.124;5.422;2022-12-10T01:02:48;42.92;;;16.20;;
71963;SDS011;59834;52.124;5.422;2022-12-10T01:05:14;51.13;;;18.65;;
71963;SDS011;59834;52.124;5.422;2022-12-10T01:07:41;54.37;;;16.57;;
71963;SDS011;59834;52.124;5.422;2022-12-10T01:13:43;53.22;;;17.27;;
71963;SDS011;59834;52.124;5.422;2022-12-10T01:16:11;44.88;;;18.20;;
71963;SDS011;59834;52.124;5.422;2022-12-10T01:18:40;48.50;;;16.85;;
71963;SDS011;59834;52.124;5.422;2022-12-10T01:21:08;41.30;;;17.13;;
71963;SDS011;59834;52.124;5.422;2022-12-10T01:23:40;46.00;;;16.77;;
71963;SDS011;59834;52.124;5.422;2022-12-10T01:26:10;46.58;;;17.88;;
71963;SDS011;59834;52.124;5.422;2022-12-10T01:28:39;57.92;;;20.48;;
71963;SDS011;59834;52.124;5.422;2022-12-10T01:31:08;49.58;;;18.42;;
71963;SDS011;59834;52.124;5.422;2022-12-10T01:33:37;45.20;;;15.93;;
71963;SDS011;59834;52.124;5.422;2022-12-10T01:36:05;44.90;;;16.83;;
71963;SDS011;59834;52.124;5.422;2022-12-10T01:38:37;45.58;;;15.00;;
71963;SDS011;59834;52.124;5.422;2022-12-10T01:41:05;44.08;;;16.80;;
71963;SDS011;59834;52.124;5.422;2022-12-10T01:46:20;41.70;;;15.23;;
71963;SDS011;59834;52.124;5.422;2022-12-10T01:48:48;41.45;;;14.25;;
71963;SDS011;59834;52.124;5.422;2022-12-10T01:51:15;44.40;;;15.07;;
71963;SDS011;59834;52.124;5.422;2022-12-10T01:53:42;49.70;;;18.15;;
71963;SDS011;59834;52.124;5.422;2022-12-10T01:56:10;41.13;;;15.57;;
71963;SDS011;59834;52.124;5.422;2022-12-10T01:58:38;53.40;;;17.97;;
71963;SDS011;59834;52.124;5.422;2022-12-10T02:01:13;45.95;;;16.70;;
71963;SDS011;59834;52.124;5.422;2022-12-10T02:06:31;52.80;;;18.35;;
71963;SDS011;59834;52.124;5.422;2022-12-10T02:09:04;42.92;;;15.07;;
71963;SDS011;59834;52.124;5.422;2022-12-10T02:14:32;49.20;;;17.80;;
71963;SDS011;59834;52.124;5.422;2022-12-10T02:17:05;50.35;;;16.70;;
71963;SDS011;59834;52.124;5.422;2022-12-10T02:20:03;52.55;;;16.80;;
71963;SDS011;59834;52.124;5.422;2022-12-10T02:22:38;45.08;;;15.52;;
71963;SDS011;59834;52.124;5.422;2022-12-10T02:25:12;56.50;;;17.07;;
71963;SDS011;59834;52.124;5.422;2022-12-10T02:30:29;51.50;;;18.77;;
71963;SDS011;59834;52.124;5.422;2022-12-10T02:32:57;46.00;;;16.17;;
71963;SDS011;59834;52.124;5.422;2022-12-10T02:35:28;47.20;;;14.02;;
71963;SDS011;59834;52.124;5.422;2022-12-10T02:37:59;43.40;;;14.00;;
71963;SDS011;59834;52.124;5.422;2022-12-10T02:40:31;75.82;;;17.10;;
71963;SDS011;59834;52.124;5.422;2022-12-10T02:42:59;75.03;;;14.65;;
71963;SDS011;59834;52.124;5.422;2022-12-10T02:45:27;44.10;;;15.10;;
71963;SDS011;59834;52.124;5.422;2022-12-10T02:47:56;40.33;;;15.25;;
71963;SDS011;59834;52.124;5.422;2022-12-10T02:50:24;58.23;;;14.60;;
71963;SDS011;59834;52.124;5.422;2022-12-10T02:52:51;51.20;;;14.68;;
71963;SDS011;59834;52.124;5.422;2022-12-10T02:55:18;52.22;;;13.45;;
71963;SDS011;59834;52.124;5.422;2022-12-10T02:58:01;39.13;;;13.40;;
71963;SDS011;59834;52.124;5.422;2022-12-10T03:01:27;45.75;;;14.10;;
71963;SDS011;59834;52.124;5.422;2022-12-10T03:03:38;48.03;;;13.07;;
71963;SDS011;59834;52.124;5.422;2022-12-10T03:06:19;52.03;;;13.65;;
71963;SDS011;59834;52.124;5.422;2022-12-10T03:11:43;55.00;;;13.30;;
71963;SDS011;59834;52.124;5.422;2022-12-10T03:14:14;46.78;;;14.02;;
71963;SDS011;59834;52.124;5.422;2022-12-10T03:16:50;105.63;;;15.10;;
71963;SDS011;59834;52.124;5.422;2022-12-10T03:19:21;80.93;;;16.17;;
71963;SDS011;59834;52.124;5.422;2022-12-10T03:21:56;101.65;;;16.20;;
71963;SDS011;59834;52.124;5.422;2022-12-10T03:24:24;68.68;;;14.98;;
71963;SDS011;59834;52.124;5.422;2022-12-10T03:26:53;70.90;;;14.95;;
71963;SDS011;59834;52.124;5.422;2022-12-10T03:29:29;65.53;;;15.13;;
71963;SDS011;59834;52.124;5.422;2022-12-10T03:32:01;63.25;;;15.52;;
71963;SDS011;59834;52.124;5.422;2022-12-10T03:34:28;75.85;;;16.92;;
71963;SDS011;59834;52.124;5.422;2022-12-10T03:36:55;67.70;;;13.88;;
71963;SDS011;59834;52.124;5.422;2022-12-10T03:39:23;97.82;;;15.07;;
71963;SDS011;59834;52.124;5.422;2022-12-10T03:41:50;53.97;;;13.37;;
71963;SDS011;59834;52.124;5.422;2022-12-10T03:44:36;74.70;;;12.43;;
71963;SDS011;59834;52.124;5.422;2022-12-10T03:47:07;49.70;;;13.48;;
71963;SDS011;59834;52.124;5.422;2022-12-10T03:49:37;86.40;;;13.85;;
71963;SDS011;59834;52.124;5.422;2022-12-10T03:52:04;59.83;;;12.93;;
71963;SDS011;59834;52.124;5.422;2022-12-10T03:54:30;72.60;;;13.83;;
71963;SDS011;59834;52.124;5.422;2022-12-10T03:56:57;75.70;;;13.70;;
71963;SDS011;59834;52.124;5.422;2022-12-10T03:59:24;66.18;;;14.98;;
71963;SDS011;59834;52.124;5.422;2022-12-10T04:01:50;63.42;;;13.85;;
71963;SDS011;59834;52.124;5.422;2022-12-10T04:04:17;61.90;;;12.93;;
71963;SDS011;59834;52.124;5.422;2022-12-10T04:06:44;54.83;;;13.17;;
71963;SDS011;59834;52.124;5.422;2022-12-10T04:09:11;47.35;;;11.88;;
71963;SDS011;59834;52.124;5.422;2022-12-10T04:11:39;45.30;;;12.98;;
71963;SDS011;59834;52.124;5.422;2022-12-10T04:14:05;65.05;;;12.52;;
71963;SDS011;59834;52.124;5.422;2022-12-10T04:16:50;54.35;;;14.38;;
71963;SDS011;59834;52.124;5.422;2022-12-10T04:19:17;84.57;;;13.53;;
71963;SDS011;59834;52.124;5.422;2022-12-10T04:21:44;46.45;;;12.60;;
71963;SDS011;59834;52.124;5.422;2022-12-10T04:24:31;51.90;;;11.75;;
71963;SDS011;59834;52.124;5.422;2022-12-10T04:29:50;77.40;;;15.07;;
71963;SDS011;59834;52.124;5.422;2022-12-10T04:32:17;72.17;;;14.60;;
71963;SDS011;59834;52.124;5.422;2022-12-10T04:34:44;53.80;;;13.75;;
71963;SDS011;59834;52.124;5.422;2022-12-10T04:37:11;66.15;;;13.25;;
71963;SDS011;59834;52.124;5.422;2022-12-10T04:39:38;79.88;;;12.65;;
71963;SDS011;59834;52.124;5.422;2022-12-10T04:42:06;61.80;;;13.02;;
71963;SDS011;59834;52.124;5.422;2022-12-10T04:44:33;67.93;;;14.57;;
71963;SDS011;59834;52.124;5.422;2022-12-10T04:47:01;66.70;;;13.82;;
71963;SDS011;59834;52.124;5.422;2022-12-10T04:49:30;44.50;;;11.77;;
71963;SDS011;59834;52.124;5.422;2022-12-10T04:51:56;60.00;;;12.93;;
71963;SDS011;59834;52.124;5.422;2022-12-10T04:54:23;77.05;;;15.68;;
71963;SDS011;59834;52.124;5.422;2022-12-10T04:56:50;64.20;;;13.57;;
71963;SDS011;59834;52.124;5.422;2022-12-10T04:59:16;66.50;;;12.07;;
71963;SDS011;59834;52.124;5.422;2022-12-10T05:01:43;49.05;;;13.80;;
71963;SDS011;59834;52.124;5.422;2022-12-10T05:04:12;50.53;;;13.13;;
71963;SDS011;59834;52.124;5.422;2022-12-10T05:06:40;74.18;;;14.43;;
71963;SDS011;59834;52.124;5.422;2022-12-10T05:09:07;86.63;;;13.83;;
71963;SDS011;59834;52.124;5.422;2022-12-10T05:11:33;77.00;;;16.45;;
71963;SDS011;59834;52.124;5.422;2022-12-10T05:14:00;60.60;;;15.35;;
71963;SDS011;59834;52.124;5.422;2022-12-10T05:16:28;76.47;;;16.15;;
71963;SDS011;59834;52.124;5.422;2022-12-10T05:18:57;74.25;;;18.42;;
71963;SDS011;59834;52.124;5.422;2022-12-10T05:21:25;61.70;;;15.13;;
71963;SDS011;59834;52.124;5.422;2022-12-10T05:24:13;58.63;;;15.52;;
71963;SDS011;59834;52.124;5.422;2022-12-10T05:26:40;93.85;;;17.92;;
71963;SDS011;59834;52.124;5.422;2022-12-10T05:29:07;59.70;;;15.07;;
71963;SDS011;59834;52.124;5.422;2022-12-10T05:31:34;63.17;;;16.02;;
71963;SDS011;59834;52.124;5.422;2022-12-10T05:34:01;63.20;;;17.13;;
71963;SDS011;59834;52.124;5.422;2022-12-10T05:36:30;70.93;;;16.50;;
71963;SDS011;59834;52.124;5.422;2022-12-10T05:38:58;64.88;;;16.08;;
71963;SDS011;59834;52.124;5.422;2022-12-10T05:41:26;57.60;;;15.82;;
71963;SDS011;59834;52.124;5.422;2022-12-10T05:43:55;93.65;;;17.10;;
71963;SDS011;59834;52.124;5.422;2022-12-10T05:46:24;65.00;;;18.23;;
71963;SDS011;59834;52.124;5.422;2022-12-10T05:48:53;71.75;;;17.00;;
71963;SDS011;59834;52.124;5.422;2022-12-10T05:51:21;45.55;;;15.63;;
71963;SDS011;59834;52.124;5.422;2022-12-10T05:53:50;68.43;;;16.58;;
71963;SDS011;59834;52.124;5.422;2022-12-10T05:56:18;70.63;;;16.98;;
71963;SDS011;59834;52.124;5.422;2022-12-10T05:58:48;81.73;;;17.07;;
71963;SDS011;59834;52.124;5.422;2022-12-10T06:01:17;52.30;;;13.90;;
71963;SDS011;59834;52.124;5.422;2022-12-10T06:03:49;111.65;;;16.77;;
71963;SDS011;59834;52.124;5.422;2022-12-10T06:06:23;82.22;;;16.70;;
71963;SDS011;59834;52.124;5.422;2022-12-10T06:08:51;70.13;;;16.00;;
71963;SDS011;59834;52.124;5.422;2022-12-10T06:11:19;82.47;;;15.57;;
71963;SDS011;59834;52.124;5.422;2022-12-10T06:13:46;59.17;;;14.77;;
71963;SDS011;59834;52.124;5.422;2022-12-10T06:16:19;81.65;;;15.02;;
71963;SDS011;59834;52.124;5.422;2022-12-10T06:18:47;67.43;;;14.55;;
71963;SDS011;59834;52.124;5.422;2022-12-10T06:21:14;60.38;;;13.77;;
71963;SDS011;59834;52.124;5.422;2022-12-10T06:23:42;51.47;;;13.20;;
71963;SDS011;59834;52.124;5.422;2022-12-10T06:26:27;48.30;;;13.02;;
71963;SDS011;59834;52.124;5.422;2022-12-10T06:28:54;53.53;;;12.80;;
71963;SDS011;59834;52.124;5.422;2022-12-10T06:31:21;43.72;;;12.32;;
71963;SDS011;59834;52.124;5.422;2022-12-10T06:33:48;43.45;;;12.13;;
71963;SDS011;59834;52.124;5.422;2022-12-10T06:36:16;34.70;;;11.07;;
71963;SDS011;59834;52.124;5.422;2022-12-10T06:38:44;49.78;;;12.30;;
71963;SDS011;59834;52.124;5.422;2022-12-10T06:41:11;52.92;;;13.00;;
71963;SDS011;59834;52.124;5.422;2022-12-10T06:43:40;39.08;;;12.32;;
71963;SDS011;59834;52.124;5.422;2022-12-10T06:46:07;43.38;;;14.57;;
71963;SDS011;59834;52.124;5.422;2022-12-10T06:48:36;45.27;;;12.30;;
71963;SDS011;59834;52.124;5.422;2022-12-10T06:51:04;51.80;;;12.55;;
71963;SDS011;59834;52.124;5.422;2022-12-10T06:53:32;51.25;;;14.07;;
71963;SDS011;59834;52.124;5.422;2022-12-10T06:56:01;55.72;;;13.25;;
71963;SDS011;59834;52.124;5.422;2022-12-10T06:58:29;41.08;;;12.73;;
71963;SDS011;59834;52.124;5.422;2022-12-10T07:01:07;50.00;;;13.00;;
71963;SDS011;59834;52.124;5.422;2022-12-10T07:03:36;30.70;;;12.13;;
71963;SDS011;59834;52.124;5.422;2022-12-10T07:06:04;60.17;;;11.63;;
71963;SDS011;59834;52.124;5.422;2022-12-10T07:08:35;45.05;;;13.40;;
71963;SDS011;59834;52.124;5.422;2022-12-10T07:11:06;37.95;;;12.35;;
71963;SDS011;59834;52.124;5.422;2022-12-10T07:13:36;42.40;;;11.77;;
71963;SDS011;59834;52.124;5.422;2022-12-10T07:16:03;46.63;;;11.82;;
71963;SDS011;59834;52.124;5.422;2022-12-10T07:18:38;47.50;;;13.55;;
71963;SDS011;59834;52.124;5.422;2022-12-10T07:21:19;65.63;;;15.13;;
71963;SDS011;59834;52.124;5.422;2022-12-10T07:24:04;45.10;;;12.57;;
71963;SDS011;59834;52.124;5.422;2022-12-10T07:26:34;41.47;;;13.03;;
71963;SDS011;59834;52.124;5.422;2022-12-10T07:29:03;45.15;;;12.73;;
71963;SDS011;59834;52.124;5.422;2022-12-10T07:31:33;42.53;;;11.80;;
71963;SDS011;59834;52.124;5.422;2022-12-10T07:34:00;77.32;;;14.32;;
71963;SDS011;59834;52.124;5.422;2022-12-10T07:36:27;45.08;;;13.50;;
71963;SDS011;59834;52.124;5.422;2022-12-10T07:38:54;42.20;;;12.47;;
71963;SDS011;59834;52.124;5.422;2022-12-10T07:41:21;38.92;;;12.95;;
71963;SDS011;59834;52.124;5.422;2022-12-10T07:43:49;59.30;;;13.10;;
71963;SDS011;59834;52.124;5.422;2022-12-10T07:46:23;49.55;;;13.80;;
71963;SDS011;59834;52.124;5.422;2022-12-10T07:48:55;43.35;;;11.38;;
71963;SDS011;59834;52.124;5.422;2022-12-10T07:51:22;54.57;;;13.17;;
71963;SDS011;59834;52.124;5.422;2022-12-10T07:53:52;39.58;;;12.60;;
71963;SDS011;59834;52.124;5.422;2022-12-10T07:56:20;47.45;;;14.10;;
71963;SDS011;59834;52.124;5.422;2022-12-10T07:58:48;43.25;;;12.55;;
71963;SDS011;59834;52.124;5.422;2022-12-10T08:01:16;54.53;;;13.77;;
71963;SDS011;59834;52.124;5.422;2022-12-10T08:03:45;40.37;;;11.93;;
71963;SDS011;59834;52.124;5.422;2022-12-10T08:06:12;49.45;;;12.98;;
71963;SDS011;59834;52.124;5.422;2022-12-10T08:08:40;40.13;;;12.60;;
71963;SDS011;59834;52.124;5.422;2022-12-10T08:11:09;47.85;;;11.30;;
71963;SDS011;59834;52.124;5.422;2022-12-10T08:13:36;50.78;;;10.88;;
71963;SDS011;59834;52.124;5.422;2022-12-10T08:16:07;48.27;;;13.47;;
71963;SDS011;59834;52.124;5.422;2022-12-10T08:18:44;40.60;;;13.20;;
71963;SDS011;59834;52.124;5.422;2022-12-10T08:21:14;36.10;;;12.20;;
71963;SDS011;59834;52.124;5.422;2022-12-10T08:23:42;58.85;;;13.80;;
71963;SDS011;59834;52.124;5.422;2022-12-10T08:26:11;39.80;;;11.35;;
71963;SDS011;59834;52.124;5.422;2022-12-10T08:28:39;41.53;;;13.13;;
71963;SDS011;59834;52.124;5.422;2022-12-10T08:31:07;38.83;;;12.60;;
71963;SDS011;59834;52.124;5.422;2022-12-10T08:33:38;53.92;;;12.88;;
71963;SDS011;59834;52.124;5.422;2022-12-10T08:36:05;45.17;;;12.82;;
71963;SDS011;59834;52.124;5.422;2022-12-10T08:38:34;54.15;;;12.63;;
71963;SDS011;59834;52.124;5.422;2022-12-10T08:41:05;55.07;;;13.77;;
71963;SDS011;59834;52.124;5.422;2022-12-10T08:43:37;64.57;;;12.02;;
71963;SDS011;59834;52.124;5.422;2022-12-10T08:46:06;44.30;;;11.45;;
71963;SDS011;59834;52.124;5.422;2022-12-10T08:48:34;37.78;;;11.82;;
71963;SDS011;59834;52.124;5.422;2022-12-10T08:51:02;53.80;;;12.85;;
71963;SDS011;59834;52.124;5.422;2022-12-10T08:53:29;39.37;;;13.57;;
71963;SDS011;59834;52.124;5.422;2022-12-10T08:55:58;51.88;;;13.60;;
71963;SDS011;59834;52.124;5.422;2022-12-10T08:58:24;43.08;;;12.52;;
71963;SDS011;59834;52.124;5.422;2022-12-10T09:00:56;44.33;;;12.43;;
71963;SDS011;59834;52.124;5.422;2022-12-10T09:03:23;46.03;;;11.23;;
71963;SDS011;59834;52.124;5.422;2022-12-10T09:05:50;37.93;;;13.20;;
71963;SDS011;59834;52.124;5.422;2022-12-10T09:08:17;47.15;;;10.63;;
71963;SDS011;59834;52.124;5.422;2022-12-10T09:10:43;48.10;;;12.32;;
71963;SDS011;59834;52.124;5.422;2022-12-10T09:13:10;35.35;;;10.60;;
71963;SDS011;59834;52.124;5.422;2022-12-10T09:15:37;46.97;;;10.77;;
71963;SDS011;59834;52.124;5.422;2022-12-10T09:18:03;31.23;;;10.17;;
71963;SDS011;59834;52.124;5.422;2022-12-10T09:20:30;45.03;;;11.75;;
71963;SDS011;59834;52.124;5.422;2022-12-10T09:22:56;29.15;;;10.32;;
71963;SDS011;59834;52.124;5.422;2022-12-10T09:25:23;43.97;;;11.05;;
71963;SDS011;59834;52.124;5.422;2022-12-10T09:27:50;38.45;;;10.77;;
71963;SDS011;59834;52.124;5.422;2022-12-10T09:30:19;53.10;;;11.37;;
71963;SDS011;59834;52.124;5.422;2022-12-10T09:32:51;43.95;;;9.63;;
71963;SDS011;59834;52.124;5.422;2022-12-10T09:35:42;32.63;;;10.23;;
71963;SDS011;59834;52.124;5.422;2022-12-10T09:38:16;48.20;;;11.93;;
71963;SDS011;59834;52.124;5.422;2022-12-10T09:40:45;42.08;;;12.73;;
71963;SDS011;59834;52.124;5.422;2022-12-10T09:52:12;45.03;;;11.60;;
71963;SDS011;59834;52.124;5.422;2022-12-10T09:54:45;40.05;;;11.25;;
71963;SDS011;59834;52.124;5.422;2022-12-10T10:00:05;44.72;;;12.18;;
71963;SDS011;59834;52.124;5.422;2022-12-10T10:02:44;53.45;;;12.60;;
71963;SDS011;59834;52.124;5.422;2022-12-10T10:05:13;57.20;;;12.70;;
71963;SDS011;59834;52.124;5.422;2022-12-10T10:07:56;57.92;;;11.85;;
71963;SDS011;59834;52.124;5.422;2022-12-10T10:10:28;41.23;;;10.83;;
71963;SDS011;59834;52.124;5.422;2022-12-10T10:13:01;45.80;;;10.27;;
71963;SDS011;59834;52.124;5.422;2022-12-10T10:15:41;44.63;;;12.07;;
71963;SDS011;59834;52.124;5.422;2022-12-10T10:21:39;37.38;;;11.75;;
71963;SDS011;59834;52.124;5.422;2022-12-10T10:24:13;41.57;;;11.93;;
71963;SDS011;59834;52.124;5.422;2022-12-10T10:26:43;40.60;;;11.10;;
71963;SDS011;59834;52.124;5.422;2022-12-10T10:29:13;35.25;;;10.77;;
71963;SDS011;59834;52.124;5.422;2022-12-10T10:31:43;44.85;;;11.15;;
71963;SDS011;59834;52.124;5.422;2022-12-10T10:34:20;37.75;;;11.70;;
71963;SDS011;59834;52.124;5.422;2022-12-10T10:36:57;39.03;;;11.53;;
71963;SDS011;59834;52.124;5.422;2022-12-10T10:39:27;42.75;;;11.57;;
71963;SDS011;59834;52.124;5.422;2022-12-10T10:41:58;50.50;;;12.98;;
71963;SDS011;59834;52.124;5.422;2022-12-10T10:44:27;42.65;;;12.00;;
71963;SDS011;59834;52.124;5.422;2022-12-10T10:47:02;60.03;;;10.98;;
71963;SDS011;59834;52.124;5.422;2022-12-10T10:49:56;40.17;;;10.53;;
71963;SDS011;59834;52.124;5.422;2022-12-10T10:52:23;44.83;;;11.43;;
71963;SDS011;59834;52.124;5.422;2022-12-10T10:54:54;39.60;;;11.55;;
71963;SDS011;59834;52.124;5.422;2022-12-10T10:57:23;47.97;;;10.95;;
71963;SDS011;59834;52.124;5.422;2022-12-10T10:59:54;40.20;;;11.13;;
71963;SDS011;59834;52.124;5.422;2022-12-10T11:02:41;32.07;;;10.13;;
71963;SDS011;59834;52.124;5.422;2022-12-10T11:07:41;36.33;;;11.32;;
71963;SDS011;59834;52.124;5.422;2022-12-10T11:10:16;44.83;;;10.95;;
71963;SDS011;59834;52.124;5.422;2022-12-10T11:13:07;41.25;;;11.57;;
71963;SDS011;59834;52.124;5.422;2022-12-10T11:15:37;41.93;;;10.53;;
71963;SDS011;59834;52.124;5.422;2022-12-10T11:18:29;39.42;;;11.48;;
71963;SDS011;59834;52.124;5.422;2022-12-10T11:20:58;37.47;;;8.95;;
71963;SDS011;59834;52.124;5.422;2022-12-10T11:23:26;39.85;;;10.07;;
71963;SDS011;59834;52.124;5.422;2022-12-10T11:49:00;37.33;;;11.48;;
71963;SDS011;59834;52.124;5.422;2022-12-10T11:54:58;29.77;;;9.77;;
71963;SDS011;59834;52.124;5.422;2022-12-10T12:00:33;35.72;;;11.13;;
71963;SDS011;59834;52.124;5.422;2022-12-10T12:15:01;33.92;;;10.18;;
71963;SDS011;59834;52.124;5.422;2022-12-10T12:17:42;33.00;;;11.73;;
71963;SDS011;59834;52.124;5.422;2022-12-10T12:20:17;43.63;;;12.55;;
71963;SDS011;59834;52.124;5.422;2022-12-10T12:23:11;36.63;;;11.13;;
71963;SDS011;59834;52.124;5.422;2022-12-10T12:25:48;26.97;;;10.57;;
71963;SDS011;59834;52.124;5.422;2022-12-10T12:31:22;42.08;;;10.38;;
71963;SDS011;59834;52.124;5.422;2022-12-10T12:34:22;35.08;;;9.95;;
71963;SDS011;59834;52.124;5.422;2022-12-10T12:36:53;35.05;;;10.85;;
71963;SDS011;59834;52.124;5.422;2022-12-10T12:39:42;45.27;;;12.17;;
71963;SDS011;59834;52.124;5.422;2022-12-10T12:53:20;41.00;;;10.43;;
71963;SDS011;59834;52.124;5.422;2022-12-10T13:00:54;42.40;;;10.60;;
71963;SDS011;59834;52.124;5.422;2022-12-10T13:03:38;40.47;;;11.95;;
71963;SDS011;59834;52.124;5.422;2022-12-10T13:06:13;41.27;;;10.87;;
71963;SDS011;59834;52.124;5.422;2022-12-10T13:11:40;29.35;;;9.80;;
71963;SDS011;59834;52.124;5.422;2022-12-10T13:14:30;34.83;;;10.93;;
71963;SDS011;59834;52.124;5.422;2022-12-10T13:17:01;37.95;;;10.40;;
71963;SDS011;59834;52.124;5.422;2022-12-10T13:19:39;43.33;;;12.33;;
71963;SDS011;59834;52.124;5.422;2022-12-10T13:22:09;45.92;;;12.77;;
71963;SDS011;59834;52.124;5.422;2022-12-10T13:25:17;40.88;;;9.88;;
71963;SDS011;59834;52.124;5.422;2022-12-10T13:27:54;32.80;;;10.07;;
71963;SDS011;59834;52.124;5.422;2022-12-10T13:30:27;35.20;;;10.25;;
71963;SDS011;59834;52.124;5.422;2022-12-10T13:34:04;36.57;;;11.97;;
71963;SDS011;59834;52.124;5.422;2022-12-10T13:45:04;38.67;;;10.77;;
71963;SDS011;59834;52.124;5.422;2022-12-10T14:07:09;36.75;;;9.93;;
71963;SDS011;59834;52.124;5.422;2022-12-10T14:09:46;29.52;;;9.85;;
71963;SDS011;59834;52.124;5.422;2022-12-10T14:12:17;36.40;;;10.18;;
71963;SDS011;59834;52.124;5.422;2022-12-10T14:14:47;33.87;;;11.37;;
71963;SDS011;59834;52.124;5.422;2022-12-10T14:17:22;44.08;;;11.63;;
71963;SDS011;59834;52.124;5.422;2022-12-10T14:19:55;32.83;;;11.32;;
71963;SDS011;59834;52.124;5.422;2022-12-10T14:22:34;47.28;;;12.35;;
71963;SDS011;59834;52.124;5.422;2022-12-10T14:25:05;58.90;;;11.45;;
71963;SDS011;59834;52.124;5.422;2022-12-10T14:27:38;38.10;;;11.10;;
71963;SDS011;59834;52.124;5.422;2022-12-10T14:30:15;51.58;;;11.50;;
71963;SDS011;59834;52.124;5.422;2022-12-10T14:32:56;33.50;;;11.05;;
71963;SDS011;59834;52.124;5.422;2022-12-10T14:35:25;47.35;;;11.07;;
71963;SDS011;59834;52.124;5.422;2022-12-10T14:37:55;33.65;;;8.55;;
71963;SDS011;59834;52.124;5.422;2022-12-10T14:40:26;39.90;;;10.33;;
71963;SDS011;59834;52.124;5.422;2022-12-10T14:43:03;32.88;;;10.43;;
71963;SDS011;59834;52.124;5.422;2022-12-10T14:45:38;28.92;;;9.45;;
71963;SDS011;59834;52.124;5.422;2022-12-10T14:48:13;44.55;;;12.07;;
71963;SDS011;59834;52.124;5.422;2022-12-10T14:50:42;55.53;;;11.43;;
71963;SDS011;59834;52.124;5.422;2022-12-10T14:53:14;40.70;;;11.57;;
71963;SDS011;59834;52.124;5.422;2022-12-10T14:55:51;42.40;;;10.70;;
71963;SDS011;59834;52.124;5.422;2022-12-10T14:58:27;43.78;;;11.80;;
71963;SDS011;59834;52.124;5.422;2022-12-10T15:00:55;40.08;;;12.95;;
71963;SDS011;59834;52.124;5.422;2022-12-10T15:03:30;36.15;;;10.30;;
71963;SDS011;59834;52.124;5.422;2022-12-10T15:06:01;49.60;;;11.40;;
71963;SDS011;59834;52.124;5.422;2022-12-10T15:08:33;44.13;;;11.98;;
71963;SDS011;59834;52.124;5.422;2022-12-10T15:11:00;44.55;;;12.05;;
71963;SDS011;59834;52.124;5.422;2022-12-10T15:15:58;42.78;;;10.88;;
71963;SDS011;59834;52.124;5.422;2022-12-10T15:21:09;39.55;;;12.15;;
71963;SDS011;59834;52.124;5.422;2022-12-10T15:23:40;45.05;;;12.10;;
71963;SDS011;59834;52.124;5.422;2022-12-10T15:26:22;41.13;;;11.10;;
71963;SDS011;59834;52.124;5.422;2022-12-10T15:29:14;35.67;;;11.23;;
71963;SDS011;59834;52.124;5.422;2022-12-10T15:34:29;41.40;;;10.93;;
71963;SDS011;59834;52.124;5.422;2022-12-10T15:37:05;50.97;;;12.75;;
71963;SDS011;59834;52.124;5.422;2022-12-10T15:39:37;46.85;;;11.75;;
71963;SDS011;59834;52.124;5.422;2022-12-10T15:47:49;44.83;;;12.85;;
71963;SDS011;59834;52.124;5.422;2022-12-10T15:50:16;50.78;;;13.77;;
71963;SDS011;59834;52.124;5.422;2022-12-10T15:52:51;45.50;;;11.68;;
71963;SDS011;59834;52.124;5.422;2022-12-10T15:55:27;49.75;;;12.52;;
71963;SDS011;59834;52.124;5.422;2022-12-10T15:57:54;43.23;;;10.20;;
71963;SDS011;59834;52.124;5.422;2022-12-10T16:00:23;55.08;;;13.98;;
71963;SDS011;59834;52.124;5.422;2022-12-10T16:02:58;47.42;;;12.60;;
71963;SDS011;59834;52.124;5.422;2022-12-10T16:05:33;43.25;;;11.77;;
71963;SDS011;59834;52.124;5.422;2022-12-10T16:08:12;46.45;;;12.38;;
71963;SDS011;59834;52.124;5.422;2022-12-10T16:10:56;48.00;;;11.90;;
71963;SDS011;59834;52.124;5.422;2022-12-10T16:21:11;63.63;;;12.98;;
71963;SDS011;59834;52.124;5.422;2022-12-10T16:24:24;48.75;;;11.48;;
71963;SDS011;59834;52.124;5.422;2022-12-10T16:27:14;54.40;;;12.60;;
71963;SDS011;59834;52.124;5.422;2022-12-10T16:30:43;40.10;;;11.98;;
71963;SDS011;59834;52.124;5.422;2022-12-10T16:33:38;42.45;;;11.07;;
71963;SDS011;59834;52.124;5.422;2022-12-10T16:36:10;46.95;;;10.88;;
71963;SDS011;59834;52.124;5.422;2022-12-10T16:38:38;46.92;;;10.90;;
71963;SDS011;59834;52.124;5.422;2022-12-10T16:41:15;37.60;;;10.17;;
71963;SDS011;59834;52.124;5.422;2022-12-10T16:43:43;44.55;;;11.85;;
71963;SDS011;59834;52.124;5.422;2022-12-10T16:46:10;36.17;;;10.40;;
71963;SDS011;59834;52.124;5.422;2022-12-10T16:48:37;36.50;;;9.90;;
71963;SDS011;59834;52.124;5.422;2022-12-10T16:51:05;37.30;;;10.90;;
71963;SDS011;59834;52.124;5.422;2022-12-10T16:53:58;40.17;;;9.63;;
71963;SDS011;59834;52.124;5.422;2022-12-10T16:56:25;33.83;;;10.23;;
71963;SDS011;59834;52.124;5.422;2022-12-10T16:58:52;33.17;;;10.27;;
71963;SDS011;59834;52.124;5.422;2022-12-10T17:01:24;40.33;;;10.65;;
71963;SDS011;59834;52.124;5.422;2022-12-10T17:03:57;38.50;;;11.65;;
71963;SDS011;59834;52.124;5.422;2022-12-10T17:06:25;40.60;;;11.80;;
71963;SDS011;59834;52.124;5.422;2022-12-10T17:08:52;55.38;;;12.52;;
71963;SDS011;59834;52.124;5.422;2022-12-10T17:14:22;38.55;;;11.32;;
71963;SDS011;59834;52.124;5.422;2022-12-10T17:16:52;37.80;;;9.57;;
71963;SDS011;59834;52.124;5.422;2022-12-10T17:19:20;43.70;;;10.83;;
71963;SDS011;59834;52.124;5.422;2022-12-10T17:21:47;41.65;;;9.27;;
71963;SDS011;59834;52.124;5.422;2022-12-10T17:24:14;42.95;;;10.65;;
71963;SDS011;59834;52.124;5.422;2022-12-10T17:26:41;46.70;;;12.52;;
71963;SDS011;59834;52.124;5.422;2022-12-10T17:29:14;41.35;;;11.65;;
71963;SDS011;59834;52.124;5.422;2022-12-10T17:31:44;36.97;;;11.53;;
71963;SDS011;59834;52.124;5.422;2022-12-10T17:34:11;37.78;;;11.45;;
71963;SDS011;59834;52.124;5.422;2022-12-10T17:36:39;35.17;;;10.60;;
71963;SDS011;59834;52.124;5.422;2022-12-10T17:39:10;41.53;;;11.15;;
71963;SDS011;59834;52.124;5.422;2022-12-10T17:41:45;50.15;;;10.98;;
71963;SDS011;59834;52.124;5.422;2022-12-10T17:44:12;33.77;;;9.17;;
71963;SDS011;59834;52.124;5.422;2022-12-10T17:46:39;37.33;;;10.05;;
71963;SDS011;59834;52.124;5.422;2022-12-10T17:49:06;33.33;;;10.43;;
71963;SDS011;59834;52.124;5.422;2022-12-10T17:51:33;40.85;;;12.20;;
71963;SDS011;59834;52.124;5.422;2022-12-10T17:53:59;35.17;;;10.75;;
71963;SDS011;59834;52.124;5.422;2022-12-10T17:56:27;32.53;;;8.93;;
71963;SDS011;59834;52.124;5.422;2022-12-10T17:58:57;54.55;;;11.48;;
71963;SDS011;59834;52.124;5.422;2022-12-10T18:01:24;32.20;;;10.25;;
71963;SDS011;59834;52.124;5.422;2022-12-10T18:03:53;40.03;;;10.32;;
71963;SDS011;59834;52.124;5.422;2022-12-10T18:06:22;45.00;;;10.60;;
71963;SDS011;59834;52.124;5.422;2022-12-10T18:08:57;40.13;;;10.93;;
71963;SDS011;59834;52.124;5.422;2022-12-10T18:11:29;49.60;;;11.20;;